Hiyodori — JD2366 — position and weather

sailwx.info

Track history (hours):
 
Tides and Currents Weather Stations Pressure Air Temp Water Temp Dewpoint Dewpoint Depression Visibility Wind Speed Wind Dir Waves Ship Positions

Hiyodori

Last reported at 2014-Sep-26 05:32 UTC. Time now 2014-Sep-30 22:02 UTC.
Position N 34°34' E 134°48'.

Length 88 m; draft 3.6 m.

Type: Cargo ship. MMSI: 431000132.

Date/timePositionNaut miles runAvg speedWind from/ knotsBaromVisibWave heightAir tempDewpointWater temp
2014-Sep-26 05:32N 34°34' E 134°48'1010.0
2014-Sep-26 04:33N 34°37' E 134°59'10 9.7
2014-Sep-26 03:33N 34°37' E 135°11'6 6.2
2014-Sep-26 02:33N 34°41' E 135°17'3 3.4
2014-Sep-26 01:33N 34°37' E 135°16'3 2.7
2014-Sep-26 00:33N 34°40' E 135°15'1 0.7
2014-Sep-25 23:34N 34°40' E 135°14'0 0.0
2014-Sep-25 22:34N 34°40' E 135°14'0 0.0
2014-Sep-25 21:33N 34°40' E 135°14'0 0.0
2014-Sep-25 20:33N 34°40' E 135°14'0 0.0
2014-Sep-25 19:33N 34°40' E 135°14'0 0.0
2014-Sep-25 18:33N 34°40' E 135°14'0 0.0
2014-Sep-25 17:33N 34°40' E 135°14'0 0.0
2014-Sep-25 16:33N 34°40' E 135°14'0 0.0
2014-Sep-25 15:34N 34°40' E 135°14'0 0.0
2014-Sep-25 14:34N 34°40' E 135°14'3 3.2
2014-Sep-25 13:33N 34°36' E 135°15'1111.0
2014-Sep-25 12:34N 34°27' E 135°08'1311.0
2014-Sep-25 11:22N 34°16' E 134°59'910.7
2014-Sep-25 10:31N 34°07' E 135°00'1010.2
2014-Sep-25 09:31N 33°57' E 135°02'  
2014-Sep-20 12:32N 35°09' E 139°44'1111.7
2014-Sep-20 11:33N 35°20' E 139°42'6 5.7
2014-Sep-20 10:32N 35°26' E 139°41'0 0.1
2014-Sep-20 09:34N 35°26' E 139°41'2 2.2
2014-Sep-20 08:34N 35°24' E 139°42'1 0.9
2014-Sep-20 07:30N 35°24' E 139°41'0 0.0
2014-Sep-20 06:33N 35°24' E 139°41'1 1.1
2014-Sep-20 05:33N 35°23' E 139°41'9 9.0
2014-Sep-20 04:32N 35°15' E 139°47'1110.5
2014-Sep-20 03:32N 35°05' E 139°42'240 5.6
2014-Sep-18 08:19N 34°05' E 134°60'912.3
2014-Sep-18 07:33N 34°14' E 134°59'1111.3
2014-Sep-18 06:33N 34°25' E 135°04'1312.5
2014-Sep-18 05:33N 34°35' E 135°13'7 6.1
2014-Sep-18 04:29N 34°41' E 135°16'0 0.0
2014-Sep-18 03:29N 34°41' E 135°16'0 0.0
2014-Sep-18 02:23N 34°41' E 135°16'0 0.0
2014-Sep-18 01:29N 34°41' E 135°16'0 0.1
2014-Sep-18 00:33N 34°41' E 135°16'4 3.2
2014-Sep-17 23:24N 34°37' E 135°17'0 0.1
2014-Sep-17 22:30N 34°37' E 135°17'0 0.0
2014-Sep-17 21:24N 34°37' E 135°17'0 0.0
2014-Sep-17 20:30N 34°37' E 135°17'0 0.0
2014-Sep-17 19:24N 34°37' E 135°17'5 5.4
2014-Sep-17 18:33N 34°33' E 135°14'1111.0
2014-Sep-17 17:33N 34°25' E 135°06'1110.6
2014-Sep-17 16:32N 34°15' E 134°59'1111.5
2014-Sep-17 15:33N 34°04' E 135°00'17710.3
2014-Sep-16 22:23N 34°29' E 138°32'5912.3
2014-Sep-16 17:33N 35°02' E 139°33'1211.8
2014-Sep-16 16:33N 35°09' E 139°44'1111.1
2014-Sep-16 15:33N 35°20' E 139°42'4 3.9
2014-Sep-16 14:32N 35°24' E 139°41'1 1.3
2014-Sep-16 13:33N 35°23' E 139°40'3 3.2
2014-Sep-16 12:33N 35°22' E 139°44'0 0.1
2014-Sep-16 11:33N 35°22' E 139°44'1010.5
2014-Sep-16 10:34N 35°12' E 139°47'  
Track history (hours):
 
Tides and Currents Weather Stations Pressure Air Temp Water Temp Dewpoint Dewpoint Depression Visibility Wind Speed Wind Dir Waves Ship Positions

Hiyodori

Last reported at 2014-Sep-26 05:32 UTC. Time now 2014-Sep-30 22:02 UTC.
Position N 34°34' E 134°48'.

Length 88 m; draft 3.6 m.

Type: Cargo ship. MMSI: 431000132.

Date/timePositionNaut miles runAvg speedWind from/ knotsBaromVisibWave heightAir tempDewpointWater temp
2014-Sep-26 05:32N 34°34' E 134°48'1010.0
2014-Sep-26 04:33N 34°37' E 134°59'10 9.7
2014-Sep-26 03:33N 34°37' E 135°11'6 6.2
2014-Sep-26 02:33N 34°41' E 135°17'3 3.4
2014-Sep-26 01:33N 34°37' E 135°16'3 2.7
2014-Sep-26 00:33N 34°40' E 135°15'1 0.7
2014-Sep-25 23:34N 34°40' E 135°14'0 0.0
2014-Sep-25 22:34N 34°40' E 135°14'0 0.0
2014-Sep-25 21:33N 34°40' E 135°14'0 0.0
2014-Sep-25 20:33N 34°40' E 135°14'0 0.0
2014-Sep-25 19:33N 34°40' E 135°14'0 0.0
2014-Sep-25 18:33N 34°40' E 135°14'0 0.0
2014-Sep-25 17:33N 34°40' E 135°14'0 0.0
2014-Sep-25 16:33N 34°40' E 135°14'0 0.0
2014-Sep-25 15:34N 34°40' E 135°14'0 0.0
2014-Sep-25 14:34N 34°40' E 135°14'3 3.2
2014-Sep-25 13:33N 34°36' E 135°15'1111.0
2014-Sep-25 12:34N 34°27' E 135°08'1311.0
2014-Sep-25 11:22N 34°16' E 134°59'910.7
2014-Sep-25 10:31N 34°07' E 135°00'1010.2
2014-Sep-25 09:31N 33°57' E 135°02'  
2014-Sep-20 12:32N 35°09' E 139°44'1111.7
2014-Sep-20 11:33N 35°20' E 139°42'6 5.7
2014-Sep-20 10:32N 35°26' E 139°41'0 0.1
2014-Sep-20 09:34N 35°26' E 139°41'2 2.2
2014-Sep-20 08:34N 35°24' E 139°42'1 0.9
2014-Sep-20 07:30N 35°24' E 139°41'0 0.0
2014-Sep-20 06:33N 35°24' E 139°41'1 1.1
2014-Sep-20 05:33N 35°23' E 139°41'9 9.0
2014-Sep-20 04:32N 35°15' E 139°47'1110.5
2014-Sep-20 03:32N 35°05' E 139°42'240 5.6
2014-Sep-18 08:19N 34°05' E 134°60'912.3
2014-Sep-18 07:33N 34°14' E 134°59'1111.3
2014-Sep-18 06:33N 34°25' E 135°04'1312.5
2014-Sep-18 05:33N 34°35' E 135°13'7 6.1
2014-Sep-18 04:29N 34°41' E 135°16'0 0.0
2014-Sep-18 03:29N 34°41' E 135°16'0 0.0
2014-Sep-18 02:23N 34°41' E 135°16'0 0.0
2014-Sep-18 01:29N 34°41' E 135°16'0 0.1
2014-Sep-18 00:33N 34°41' E 135°16'4 3.2
2014-Sep-17 23:24N 34°37' E 135°17'0 0.1
2014-Sep-17 22:30N 34°37' E 135°17'0 0.0
2014-Sep-17 21:24N 34°37' E 135°17'0 0.0
2014-Sep-17 20:30N 34°37' E 135°17'0 0.0
2014-Sep-17 19:24N 34°37' E 135°17'5 5.4
2014-Sep-17 18:33N 34°33' E 135°14'1111.0
2014-Sep-17 17:33N 34°25' E 135°06'1110.6
2014-Sep-17 16:32N 34°15' E 134°59'1111.5
2014-Sep-17 15:33N 34°04' E 135°00'17710.3
2014-Sep-16 22:23N 34°29' E 138°32'5912.3
2014-Sep-16 17:33N 35°02' E 139°33'1211.8
2014-Sep-16 16:33N 35°09' E 139°44'1111.1
2014-Sep-16 15:33N 35°20' E 139°42'4 3.9
2014-Sep-16 14:32N 35°24' E 139°41'1 1.3
2014-Sep-16 13:33N 35°23' E 139°40'3 3.2
2014-Sep-16 12:33N 35°22' E 139°44'0 0.1
2014-Sep-16 11:33N 35°22' E 139°44'1010.5
2014-Sep-16 10:34N 35°12' E 139°47'  

Dump ship's entire track history